Time;durP1;ratioP1;P1;durP2;ratioP2;P2;SDS_P1;SDS_P2;PMS_P1;PMS_P2;Temp;Humidity;BMP_temperature;BMP_pressure;BME280_temperature;BME280_humidity;BME280_pressure;Samples;Min_cycle;Max_cycle;Signal;HPM_P1;HPM_P2
2022/04/23 00:00:11;;;;;;;10.68;7.47;;;14.30;83.20;;;;;;4971713;28;20483;-86
2022/04/23 00:02:39;;;;;;;12.20;7.32;;;14.30;83.30;;;;;;4968295;28;20125;-87
2022/04/23 00:05:05;;;;;;;13.60;7.40;;;14.30;83.50;;;;;;4994644;28;20042;-86
2022/04/23 00:07:30;;;;;;;9.32;7.53;;;14.30;83.60;;;;;;4971423;28;20504;-86
2022/04/23 00:09:56;;;;;;;11.02;8.35;;;14.20;83.60;;;;;;4966438;28;20037;-86
2022/04/23 00:12:23;;;;;;;11.13;7.93;;;14.20;83.80;;;;;;4984776;28;20391;-86
2022/04/23 00:14:49;;;;;;;10.90;8.50;;;14.20;84.00;;;;;;4961873;28;20085;-87
2022/04/23 00:17:14;;;;;;;12.65;8.20;;;14.20;84.20;;;;;;4991764;28;20037;-88
2022/04/23 00:19:40;;;;;;;12.13;7.90;;;14.10;84.20;;;;;;4981253;28;20027;-86
2022/04/23 00:22:06;;;;;;;11.38;7.55;;;14.10;84.50;;;;;;4967979;28;20110;-86
2022/04/23 00:24:32;;;;;;;12.65;7.95;;;14.10;84.80;;;;;;5002925;28;20046;-87
2022/04/23 00:26:57;;;;;;;12.15;8.32;;;14.10;85.00;;;;;;4988900;28;20037;-87
2022/04/23 00:29:23;;;;;;;10.02;7.78;;;14.10;85.20;;;;;;4971864;28;20030;-87
2022/04/23 00:31:48;;;;;;;10.63;7.72;;;14.10;85.20;;;;;;4965791;28;20037;-86
2022/04/23 00:34:14;;;;;;;10.25;8.40;;;14.00;85.40;;;;;;4963495;28;20477;-87
2022/04/23 00:36:40;;;;;;;10.13;8.02;;;14.00;85.60;;;;;;4992234;28;20025;-86
2022/04/23 00:39:05;;;;;;;13.55;9.25;;;14.00;85.60;;;;;;4955515;28;20029;-86
2022/04/23 00:41:46;;;;;;;12.77;8.77;;;14.00;85.70;;;;;;4997057;28;20038;-86
2022/04/23 00:44:16;;;;;;;11.23;8.30;;;14.00;86.00;;;;;;4996803;28;20377;-87
2022/04/23 00:46:42;;;;;;;11.98;8.48;;;14.00;86.10;;;;;;5015710;28;20500;-86
2022/04/23 00:49:08;;;;;;;10.95;8.20;;;13.90;86.30;;;;;;5009107;28;20025;-86
2022/04/23 00:51:36;;;;;;;11.27;8.48;;;13.90;86.40;;;;;;5007297;28;20077;-87
2022/04/23 00:54:05;;;;;;;10.18;8.13;;;13.90;86.50;;;;;;4968607;28;20249;-85
2022/04/23 00:56:31;;;;;;;10.80;8.52;;;13.90;86.70;;;;;;4986615;28;20497;-86
2022/04/23 00:58:57;;;;;;;10.98;9.18;;;13.80;86.90;;;;;;5013791;28;20104;-87
2022/04/23 01:01:24;;;;;;;12.55;9.48;;;13.80;86.90;;;;;;4971149;28;20189;-86
2022/04/23 01:03:51;;;;;;;12.05;9.90;;;13.80;87.20;;;;;;5004926;28;20033;-87
2022/04/23 01:06:18;;;;;;;12.68;9.48;;;13.80;87.50;;;;;;5001486;28;20101;-86
2022/04/23 01:08:45;;;;;;;13.40;10.50;;;13.80;87.60;;;;;;5001394;28;20025;-86
2022/04/23 01:11:11;;;;;;;18.85;10.80;;;13.70;87.60;;;;;;5009637;28;20068;-87
2022/04/23 01:13:36;;;;;;;12.98;10.40;;;13.70;87.80;;;;;;4989654;28;20041;-87
2022/04/23 01:16:07;;;;;;;13.52;10.27;;;13.70;88.00;;;;;;4966946;28;20044;-85
2022/04/23 01:18:36;;;;;;;15.02;11.50;;;13.70;88.40;;;;;;5008577;28;20083;-87
2022/04/23 01:21:05;;;;;;;18.13;11.85;;;13.60;89.10;;;;;;5004615;28;20045;-86
2022/04/23 01:23:31;;;;;;;14.27;11.38;;;13.60;88.90;;;;;;4976616;28;20125;-88
2022/04/23 01:26:00;;;;;;;15.77;11.65;;;13.60;89.00;;;;;;4988268;28;20041;-86
2022/04/23 01:28:28;;;;;;;16.55;12.75;;;13.60;89.20;;;;;;4983568;28;20125;-87
2022/04/23 01:30:57;;;;;;;16.65;12.07;;;13.60;89.50;;;;;;4993850;28;20073;-86
2022/04/23 01:33:22;;;;;;;17.90;12.38;;;13.60;89.70;;;;;;5020654;28;20050;-89
2022/04/23 01:35:48;;;;;;;15.95;12.25;;;13.50;89.90;;;;;;5015802;28;20034;-87
2022/04/23 01:38:14;;;;;;;19.48;13.57;;;13.50;90.10;;;;;;5018202;28;20044;-90
2022/04/23 01:40:40;;;;;;;17.77;13.88;;;13.50;90.30;;;;;;4967915;28;20034;-86
2022/04/23 01:43:08;;;;;;;16.55;13.13;;;13.50;90.30;;;;;;4976671;28;20041;-90
2022/04/23 01:45:34;;;;;;;16.58;13.82;;;13.40;90.50;;;;;;5005298;28;20031;-85
2022/04/23 01:47:59;;;;;;;16.77;13.50;;;13.40;90.50;;;;;;4996254;28;20042;-85
2022/04/23 01:50:25;;;;;;;17.30;13.30;;;13.40;90.60;;;;;;5002914;28;20397;-86
2022/04/23 01:52:51;;;;;;;19.73;14.90;;;13.40;90.70;;;;;;4980882;28;20390;-86
2022/04/23 01:55:16;;;;;;;18.33;14.30;;;13.40;90.90;;;;;;4975879;28;20026;-86
2022/04/23 01:57:42;;;;;;;17.88;14.32;;;13.40;91.00;;;;;;4983974;28;20441;-86
2022/04/23 02:00:11;;;;;;;19.15;15.73;;;13.30;91.10;;;;;;4981940;28;20425;-86
2022/04/23 02:02:39;;;;;;;18.83;15.73;;;13.30;91.30;;;;;;4990745;28;20145;-86
2022/04/23 02:05:06;;;;;;;19.20;15.15;;;13.30;91.50;;;;;;5000257;28;20030;-86
2022/04/23 02:07:45;;;;;;;17.63;15.07;;;13.30;91.60;;;;;;4969394;28;20040;-88
2022/04/23 02:10:14;;;;;;;19.38;15.50;;;13.30;91.70;;;;;;4984040;28;20501;-87
2022/04/23 02:12:40;;;;;;;18.88;14.80;;;13.30;91.80;;;;;;4984507;28;20026;-86
2022/04/23 02:15:07;;;;;;;21.30;15.70;;;13.30;91.90;;;;;;4981530;28;20088;-86
2022/04/23 02:17:34;;;;;;;21.05;15.63;;;13.30;92.00;;;;;;4986217;28;20027;-86
2022/04/23 02:20:04;;;;;;;19.83;16.25;;;13.30;92.10;;;;;;4999529;28;20022;-86
2022/04/23 02:22:30;;;;;;;18.17;15.23;;;13.30;92.30;;;;;;4958612;28;20462;-86
2022/04/23 02:24:56;;;;;;;19.95;15.98;;;13.30;92.30;;;;;;4978763;28;20068;-86
2022/04/23 02:27:23;;;;;;;19.45;16.45;;;13.30;92.40;;;;;;4990782;28;20034;-87
2022/04/23 02:29:50;;;;;;;18.30;16.13;;;13.20;92.50;;;;;;4977388;28;20551;-89
2022/04/23 02:32:15;;;;;;;21.02;16.98;;;13.20;92.60;;;;;;4964828;28;20022;-88
2022/04/23 02:34:41;;;;;;;20.70;16.30;;;13.20;92.70;;;;;;4980834;28;20034;-86
2022/04/23 02:37:07;;;;;;;19.10;16.05;;;13.20;92.80;;;;;;5002848;28;20068;-87
2022/04/23 02:39:33;;;;;;;19.08;16.45;;;13.20;92.90;;;;;;4968256;28;20030;-86
2022/04/23 02:41:59;;;;;;;18.48;15.88;;;13.20;93.00;;;;;;4978383;28;20034;-86
2022/04/23 02:44:25;;;;;;;21.05;16.10;;;13.20;93.10;;;;;;4971470;28;20030;-86
2022/04/23 02:46:52;;;;;;;19.83;15.65;;;13.10;93.20;;;;;;5000105;28;20062;-86
2022/04/23 02:49:18;;;;;;;19.23;16.60;;;13.10;93.50;;;;;;5001789;28;20075;-87
2022/04/23 02:51:43;;;;;;;24.05;17.98;;;13.20;93.40;;;;;;4997445;28;20030;-86
2022/04/23 02:54:09;;;;;;;25.58;18.45;;;13.10;93.50;;;;;;4986754;28;20124;-87
2022/04/23 02:56:35;;;;;;;20.13;16.13;;;13.10;93.50;;;;;;4970180;28;20034;-87
2022/04/23 02:59:02;;;;;;;21.05;16.90;;;13.10;93.60;;;;;;4985896;28;20380;-86
2022/04/23 03:01:29;;;;;;;21.58;16.80;;;13.10;93.70;;;;;;4988993;28;20054;-86
2022/04/23 03:03:58;;;;;;;21.60;17.27;;;13.10;93.90;;;;;;4978086;28;20034;-86
2022/04/23 03:06:28;;;;;;;20.88;16.40;;;13.10;94.00;;;;;;4990854;28;20038;-86
2022/04/23 03:08:56;;;;;;;21.33;18.25;;;13.00;94.00;;;;;;4999665;28;20079;-87
2022/04/23 03:11:22;;;;;;;22.42;18.17;;;13.10;94.20;;;;;;4970848;28;20041;-87
2022/04/23 03:13:47;;;;;;;20.67;17.05;;;13.00;94.20;;;;;;4967869;28;20490;-86
2022/04/23 03:16:13;;;;;;;20.38;16.98;;;13.00;94.30;;;;;;5011123;28;20040;-87
2022/04/23 03:18:39;;;;;;;22.85;18.05;;;13.00;94.40;;;;;;4981858;28;20057;-87
2022/04/23 03:21:05;;;;;;;21.58;18.08;;;13.00;94.50;;;;;;4984171;28;20101;-86
2022/04/23 03:23:31;;;;;;;22.30;17.50;;;13.00;94.50;;;;;;4997301;28;20057;-87
2022/04/23 03:25:57;;;;;;;21.25;18.00;;;13.00;94.60;;;;;;4982461;28;20473;-87
2022/04/23 03:28:23;;;;;;;21.13;16.33;;;13.00;94.70;;;;;;4968299;28;20034;-87
2022/04/23 03:30:48;;;;;;;19.42;17.05;;;12.90;94.80;;;;;;4954430;28;20088;-86
2022/04/23 03:33:14;;;;;;;20.00;17.15;;;12.90;94.90;;;;;;4962469;28;20096;-87
2022/04/23 03:35:40;;;;;;;21.75;17.85;;;12.90;95.00;;;;;;4992523;28;20396;-87
2022/04/23 03:38:06;;;;;;;19.15;16.58;;;12.90;95.20;;;;;;4997188;28;20105;-87
2022/04/23 03:40:31;;;;;;;19.65;16.13;;;12.90;95.30;;;;;;5002483;28;20461;-87
2022/04/23 03:42:57;;;;;;;20.40;16.83;;;12.90;95.40;;;;;;4977607;28;20385;-87
2022/04/23 03:45:24;;;;;;;19.83;17.60;;;12.90;95.60;;;;;;4957022;28;20106;-86
2022/04/23 03:47:50;;;;;;;19.10;16.60;;;12.90;95.60;;;;;;4990622;28;20030;-86
2022/04/23 03:50:17;;;;;;;20.05;17.30;;;12.90;95.80;;;;;;4977923;28;20038;-87
2022/04/23 03:52:42;;;;;;;19.75;16.92;;;12.90;95.90;;;;;;4985342;28;20057;-86
2022/04/23 03:55:09;;;;;;;20.38;17.40;;;12.90;95.90;;;;;;4990754;28;20065;-86
2022/04/23 03:57:50;;;;;;;22.33;17.15;;;12.90;96.10;;;;;;4986164;28;20452;-86
2022/04/23 04:00:19;;;;;;;20.27;16.65;;;12.90;96.20;;;;;;4978543;28;20109;-86
2022/04/23 04:02:45;;;;;;;21.65;17.88;;;12.80;96.30;;;;;;4999636;28;20088;-86
2022/04/23 04:05:11;;;;;;;20.30;17.02;;;12.80;96.40;;;;;;4982081;28;20059;-85
2022/04/23 04:07:42;;;;;;;20.55;17.67;;;12.80;96.40;;;;;;5004950;28;20088;-87
2022/04/23 04:10:09;;;;;;;20.10;16.95;;;12.80;96.60;;;;;;4981008;28;20045;-87
2022/04/23 04:12:34;;;;;;;20.90;17.90;;;12.80;96.70;;;;;;4985231;28;20443;-85
2022/04/23 04:15:00;;;;;;;25.33;17.70;;;12.80;96.70;;;;;;4993854;28;20105;-87
2022/04/23 04:17:26;;;;;;;22.30;18.55;;;12.80;96.80;;;;;;4999485;28;20061;-87
2022/04/23 04:19:53;;;;;;;19.75;16.85;;;12.80;96.80;;;;;;4998453;28;20048;-87
2022/04/23 04:22:21;;;;;;;19.60;17.30;;;12.70;96.90;;;;;;4990254;28;20031;-86
2022/04/23 04:24:47;;;;;;;22.15;17.95;;;12.70;97.00;;;;;;5006729;28;20038;-88
2022/04/23 04:27:13;;;;;;;21.85;17.95;;;12.70;97.00;;;;;;4967982;28;20129;-86
2022/04/23 04:29:38;;;;;;;19.83;16.75;;;12.70;97.10;;;;;;5006069;28;20042;-87
2022/04/23 04:32:07;;;;;;;19.70;17.25;;;12.70;97.10;;;;;;4977579;28;20133;-86
2022/04/23 04:34:33;;;;;;;19.30;16.83;;;12.70;97.20;;;;;;4989925;28;20032;-87
2022/04/23 04:37:03;;;;;;;19.70;16.77;;;12.60;97.20;;;;;;4989892;28;20034;-87
2022/04/23 04:39:29;;;;;;;20.77;17.50;;;12.70;97.30;;;;;;5015309;28;20030;-87
2022/04/23 04:41:54;;;;;;;20.95;17.38;;;12.60;97.40;;;;;;5012705;28;20105;-87
2022/04/23 04:44:20;;;;;;;22.23;17.42;;;12.60;97.50;;;;;;4990204;28;20414;-86
2022/04/23 04:46:45;;;;;;;20.08;16.55;;;12.60;97.60;;;;;;4987601;28;20037;-87
2022/04/23 04:49:11;;;;;;;20.58;16.80;;;12.60;97.70;;;;;;5000791;28;20034;-85
2022/04/23 04:51:37;;;;;;;19.75;16.13;;;12.60;97.70;;;;;;5002159;28;20030;-86
2022/04/23 04:54:06;;;;;;;18.95;16.50;;;12.60;97.80;;;;;;4998436;28;20029;-88
2022/04/23 04:56:33;;;;;;;18.70;16.45;;;12.60;97.90;;;;;;4990309;28;20061;-86
2022/04/23 04:58:59;;;;;;;19.20;16.42;;;12.50;97.90;;;;;;5009027;28;20514;-86
2022/04/23 05:01:25;;;;;;;20.23;15.77;;;12.60;97.90;;;;;;4963769;28;20156;-86
2022/04/23 05:03:51;;;;;;;22.02;17.23;;;12.50;97.90;;;;;;4964529;28;20096;-85
2022/04/23 05:06:17;;;;;;;18.42;16.30;;;12.50;97.90;;;;;;4977297;28;20034;-86
2022/04/23 05:08:43;;;;;;;20.30;17.42;;;12.50;97.90;;;;;;5013593;28;20109;-86
2022/04/23 05:11:09;;;;;;;18.20;16.20;;;12.50;98.00;;;;;;4978329;28;20168;-86
2022/04/23 05:13:35;;;;;;;17.55;15.48;;;12.50;98.00;;;;;;4994070;28;20089;-87
2022/04/23 05:16:02;;;;;;;19.08;16.67;;;12.40;98.00;;;;;;4982665;28;20348;-87
2022/04/23 05:18:27;;;;;;;18.25;16.27;;;12.50;98.10;;;;;;4993874;28;20033;-87
2022/04/23 05:20:53;;;;;;;19.05;16.52;;;12.40;98.20;;;;;;5016991;28;20097;-91
2022/04/23 05:23:19;;;;;;;19.38;16.92;;;12.40;98.20;;;;;;4993486;28;20056;-86
2022/04/23 05:25:45;;;;;;;18.85;16.05;;;12.40;98.40;;;;;;5013360;28;20026;-86
2022/04/23 05:28:10;;;;;;;23.88;17.48;;;12.40;98.50;;;;;;4969184;28;20037;-88
2022/04/23 05:30:37;;;;;;;20.98;17.20;;;12.40;98.60;;;;;;4993907;28;20021;-85
2022/04/23 05:33:04;;;;;;;20.98;16.92;;;12.40;98.70;;;;;;4977545;28;20378;-86
2022/04/23 05:35:30;;;;;;;20.35;17.30;;;12.40;98.70;;;;;;4976257;28;20476;-88
2022/04/23 05:37:55;;;;;;;18.70;16.42;;;12.40;98.80;;;;;;4991936;28;20055;-87
2022/04/23 05:40:21;;;;;;;18.45;14.82;;;12.40;98.90;;;;;;4973276;28;20072;-86
2022/04/23 05:42:47;;;;;;;17.58;15.65;;;12.40;99.00;;;;;;4963729;28;20029;-87
2022/04/23 05:45:12;;;;;;;19.52;15.90;;;12.30;99.00;;;;;;4995963;28;20122;-86
2022/04/23 05:47:41;;;;;;;18.48;16.13;;;12.30;99.10;;;;;;4973774;28;20026;-87
2022/04/23 05:50:11;;;;;;;19.15;16.42;;;12.40;99.20;;;;;;4968697;28;20364;-86
2022/04/23 05:52:39;;;;;;;18.17;16.27;;;12.30;99.20;;;;;;4952384;28;20033;-87
2022/04/23 05:55:06;;;;;;;18.10;15.70;;;12.30;99.30;;;;;;4984455;28;20134;-86
2022/04/23 05:57:32;;;;;;;18.38;15.63;;;12.30;99.40;;;;;;4976723;28;20023;-86
2022/04/23 05:59:58;;;;;;;19.70;15.57;;;12.30;99.40;;;;;;4967582;28;20026;-87
2022/04/23 06:02:24;;;;;;;18.75;15.95;;;12.30;99.40;;;;;;4983082;28;20058;-86
2022/04/23 06:04:49;;;;;;;18.13;15.75;;;12.30;99.40;;;;;;4992227;28;20169;-87
2022/04/23 06:07:19;;;;;;;18.70;16.67;;;12.30;99.50;;;;;;4967091;28;20049;-86
2022/04/23 06:09:45;;;;;;;17.15;15.10;;;12.30;99.50;;;;;;4994709;28;20234;-87
2022/04/23 06:12:11;;;;;;;17.85;15.77;;;12.30;99.60;;;;;;4978497;28;20041;-86
2022/04/23 06:14:37;;;;;;;16.90;15.02;;;12.30;99.70;;;;;;4984300;28;20030;-86
2022/04/23 06:17:11;;;;;;;20.17;15.55;;;12.30;99.70;;;;;;4981093;28;20049;-87
2022/04/23 06:19:38;;;;;;;17.23;14.98;;;12.30;99.80;;;;;;5003253;28;20077;-85
2022/04/23 06:22:04;;;;;;;16.55;14.35;;;12.30;99.90;;;;;;4973221;28;20050;-86
2022/04/23 06:24:30;;;;;;;19.52;15.88;;;12.30;99.90;;;;;;5004864;28;20101;-86
2022/04/23 06:26:56;;;;;;;16.33;14.63;;;12.30;99.90;;;;;;4949965;28;20169;-86
2022/04/23 06:29:21;;;;;;;17.30;15.13;;;12.30;99.90;;;;;;4983846;28;20495;-87
2022/04/23 06:31:47;;;;;;;19.13;16.35;;;12.30;99.90;;;;;;4973573;28;20030;-88
2022/04/23 06:34:13;;;;;;;16.80;14.25;;;12.30;99.90;;;;;;4984338;28;20025;-86
2022/04/23 06:36:40;;;;;;;17.10;14.45;;;12.30;99.90;;;;;;4975144;28;20038;-86
2022/04/23 06:39:06;;;;;;;15.95;13.77;;;12.30;99.90;;;;;;4997689;28;20089;-87
2022/04/23 06:41:32;;;;;;;16.20;13.77;;;12.30;99.90;;;;;;5002746;28;20025;-86
2022/04/23 06:43:57;;;;;;;17.52;14.15;;;12.40;99.90;;;;;;4981812;28;20494;-87
2022/04/23 06:46:23;;;;;;;15.70;13.10;;;12.40;99.90;;;;;;4982088;28;20030;-86
2022/04/23 06:48:49;;;;;;;19.35;13.85;;;12.40;99.90;;;;;;4974962;28;20042;-87
2022/04/23 06:51:15;;;;;;;14.77;13.00;;;12.40;99.90;;;;;;4966303;28;20041;-86
2022/04/23 06:53:41;;;;;;;16.42;13.35;;;12.50;99.90;;;;;;4981525;28;20105;-86
2022/04/23 06:56:07;;;;;;;13.85;12.32;;;12.50;99.90;;;;;;4955212;28;20034;-86
2022/04/23 06:58:32;;;;;;;15.10;13.02;;;12.50;99.90;;;;;;4994218;28;20030;-86
2022/04/23 07:00:58;;;;;;;14.93;13.32;;;12.60;99.90;;;;;;4981654;28;20042;-87
2022/04/23 07:03:25;;;;;;;14.77;13.18;;;12.60;99.90;;;;;;4996197;28;20049;-86
2022/04/23 07:05:51;;;;;;;16.40;13.93;;;12.60;99.90;;;;;;4982757;28;20040;-86
2022/04/23 07:08:17;;;;;;;15.75;14.00;;;12.70;99.90;;;;;;4972055;28;20081;-87
2022/04/23 07:10:46;;;;;;;16.23;14.45;;;12.80;99.90;;;;;;4967136;28;20121;-87
2022/04/23 07:13:12;;;;;;;15.90;14.20;;;12.80;99.90;;;;;;4992760;28;20022;-86
2022/04/23 07:15:42;;;;;;;17.38;14.27;;;12.90;99.90;;;;;;4991990;28;20029;-86
2022/04/23 07:18:08;;;;;;;16.92;14.30;;;12.90;99.90;;;;;;4988487;28;20029;-86
2022/04/23 07:20:35;;;;;;;16.58;14.45;;;13.00;99.90;;;;;;4980103;28;20029;-85
2022/04/23 07:25:45;;;;;;;17.98;15.98;;;13.10;99.90;;;;;;5008840;28;20126;-87
2022/04/23 07:28:10;;;;;;;18.25;16.20;;;13.10;99.90;;;;;;5002877;28;20062;-87
2022/04/23 07:30:37;;;;;;;18.92;16.63;;;13.20;99.90;;;;;;4949336;28;20026;-86
2022/04/23 07:33:03;;;;;;;19.80;15.95;;;13.20;99.90;;;;;;4990176;28;20041;-87
2022/04/23 07:38:19;;;;;;;16.40;14.65;;;13.40;99.90;;;;;;5008243;28;20046;-87
2022/04/23 07:40:46;;;;;;;19.60;15.70;;;13.50;99.90;;;;;;5000588;28;20033;-87
2022/04/23 07:43:14;;;;;;;17.98;15.00;;;13.50;99.90;;;;;;4986373;28;20069;-87
2022/04/23 07:45:41;;;;;;;18.00;15.48;;;13.60;99.90;;;;;;5018843;28;20030;-87
2022/04/23 07:48:08;;;;;;;19.33;16.48;;;13.60;99.90;;;;;;5000377;28;20026;-87
2022/04/23 07:50:36;;;;;;;18.20;16.23;;;13.70;99.90;;;;;;4992613;28;20033;-87
2022/04/23 07:53:03;;;;;;;16.65;14.90;;;13.80;99.50;;;;;;4988762;28;20022;-86
2022/04/23 07:55:38;;;;;;;17.13;14.98;;;13.90;99.30;;;;;;4992758;28;20111;-87
2022/04/23 07:58:04;;;;;;;16.95;14.75;;;14.00;99.20;;;;;;4988489;28;20113;-87
2022/04/23 08:00:36;;;;;;;18.55;15.45;;;14.00;99.10;;;;;;5000870;28;20084;-87
2022/04/23 08:03:06;;;;;;;17.65;15.73;;;14.10;99.00;;;;;;5009164;28;20126;-86
2022/04/23 08:05:32;;;;;;;19.07;16.50;;;14.20;99.00;;;;;;5003026;28;20030;-86
2022/04/23 08:07:59;;;;;;;17.80;15.80;;;14.30;98.60;;;;;;4988312;28;20040;-86
2022/04/23 08:10:24;;;;;;;16.95;15.13;;;14.40;98.50;;;;;;4982427;28;20059;-85
2022/04/23 08:12:50;;;;;;;17.23;14.82;;;14.40;98.30;;;;;;4983259;28;20026;-84
2022/04/23 08:15:16;;;;;;;16.83;14.48;;;14.50;98.00;;;;;;4972047;28;20109;-84
2022/04/23 08:17:42;;;;;;;18.42;15.77;;;14.60;97.80;;;;;;5003017;28;20088;-84
2022/04/23 08:20:09;;;;;;;17.58;15.73;;;14.70;97.70;;;;;;4995605;28;20484;-86
2022/04/23 08:22:35;;;;;;;17.88;14.80;;;14.70;97.50;;;;;;5019995;28;20025;-84
2022/04/23 08:25:01;;;;;;;16.40;14.70;;;14.80;97.40;;;;;;4994084;28;20026;-84
2022/04/23 08:27:27;;;;;;;17.65;15.75;;;14.90;97.50;;;;;;4978402;28;20071;-87
2022/04/23 08:32:37;;;;;;;19.38;16.20;;;15.10;97.30;;;;;;4996993;28;20088;-87
2022/04/23 08:35:06;;;;;;;18.92;15.55;;;15.10;97.00;;;;;;4995038;28;20054;-86
2022/04/23 08:37:34;;;;;;;20.10;17.40;;;15.20;96.80;;;;;;4994982;28;20040;-87
2022/04/23 08:40:00;;;;;;;18.63;15.90;;;15.30;96.50;;;;;;4989408;28;20113;-87
2022/04/23 08:42:26;;;;;;;18.45;15.77;;;15.40;96.30;;;;;;5000663;28;20118;-87
2022/04/23 08:44:54;;;;;;;18.23;15.95;;;15.50;96.10;;;;;;5013429;28;20110;-87
2022/04/23 08:47:23;;;;;;;19.90;16.13;;;15.50;95.80;;;;;;4977500;28;20479;-87
2022/04/23 08:49:54;;;;;;;18.52;16.55;;;15.60;95.90;;;;;;4978221;28;20056;-87
2022/04/23 08:52:32;;;;;;;;;;;15.70;95.50;;;;;;5007179;28;20019;-88
2022/04/23 08:55:04;;;;;;;19.67;17.55;;;15.80;95.30;;;;;;5008057;28;19906;-87
2022/04/23 08:57:30;;;;;;;19.15;17.17;;;15.90;95.00;;;;;;5034081;28;20030;-87
2022/04/23 08:59:56;;;;;;;19.02;16.92;;;15.90;94.70;;;;;;4983189;28;20105;-90
2022/04/23 09:02:27;;;;;;;19.85;17.40;;;16.10;94.40;;;;;;4998000;28;20054;-89
2022/04/23 09:04:56;;;;;;;19.25;17.08;;;16.10;93.70;;;;;;4985578;28;20044;-85
2022/04/23 09:07:24;;;;;;;18.77;16.73;;;16.20;93.40;;;;;;5015900;28;20040;-85
2022/04/23 09:09:52;;;;;;;19.05;16.67;;;16.20;93.10;;;;;;5008430;28;20355;-87
2022/04/23 09:12:18;;;;;;;19.70;16.60;;;16.30;93.00;;;;;;5016458;28;20090;-87
2022/04/23 09:14:45;;;;;;;18.02;16.10;;;16.30;92.70;;;;;;4997809;28;20040;-85
2022/04/23 09:25:39;;;;;;;19.80;16.40;;;16.70;92.80;;;;;;5020977;28;20450;-85
2022/04/23 09:28:15;;;;;;;18.05;15.70;;;16.70;92.40;;;;;;4998866;28;20037;-85
2022/04/23 09:30:41;;;;;;;18.35;15.77;;;16.80;92.20;;;;;;4991766;28;20524;-85
2022/04/23 09:33:07;;;;;;;22.00;17.17;;;16.90;91.50;;;;;;5007932;28;20105;-85
2022/04/23 09:35:32;;;;;;;19.67;16.73;;;16.90;91.10;;;;;;5008367;28;20452;-85
2022/04/23 09:38:14;;;;;;;17.70;15.80;;;17.00;90.70;;;;;;4978287;28;20034;-84
2022/04/23 09:40:40;;;;;;;18.80;16.80;;;17.00;90.50;;;;;;4980017;28;20813;-87
2022/04/23 09:43:11;;;;;;;20.27;15.98;;;17.10;90.10;;;;;;4979504;28;20025;-86
2022/04/23 09:45:46;;;;;;;20.75;17.23;;;17.20;90.10;;;;;;4979800;28;20038;-87
2022/04/23 09:48:12;;;;;;;18.83;16.13;;;17.20;89.90;;;;;;5000779;28;20022;-88
2022/04/23 09:50:39;;;;;;;17.65;15.45;;;17.20;89.40;;;;;;5033465;28;20030;-87
2022/04/23 09:53:18;;;;;;;19.40;17.00;;;17.30;89.80;;;;;;4981375;28;20519;-86
2022/04/23 09:55:48;;;;;;;19.13;16.70;;;17.40;88.70;;;;;;5007156;28;20065;-86
2022/04/23 09:58:16;;;;;;;17.90;16.00;;;17.40;87.80;;;;;;5011180;28;20107;-89
2022/04/23 10:00:48;;;;;;;20.80;15.73;;;17.50;88.10;;;;;;4973145;28;20496;-88
2022/04/23 10:03:14;;;;;;;19.17;15.98;;;17.50;87.70;;;;;;4971245;28;20058;-86
2022/04/23 10:05:48;;;;;;;16.98;15.18;;;17.60;87.30;;;;;;4984755;28;20028;-87
2022/04/23 10:08:16;;;;;;;19.02;15.88;;;17.70;87.70;;;;;;4989127;28;20037;-89
2022/04/23 10:11:02;;;;;;;19.23;15.43;;;17.80;87.20;;;;;;4987999;28;20029;-86
2022/04/23 10:13:29;;;;;;;18.83;16.38;;;17.80;86.60;;;;;;4957437;28;20072;-86
2022/04/23 10:15:57;;;;;;;17.92;15.50;;;17.80;85.90;;;;;;5008365;28;20041;-85
2022/04/23 10:18:23;;;;;;;18.45;15.45;;;17.80;85.30;;;;;;4991975;28;20431;-86
2022/04/23 10:20:55;;;;;;;19.65;16.15;;;17.90;85.60;;;;;;5014208;28;20437;-87
2022/04/23 10:23:30;;;;;;;17.67;15.27;;;17.80;85.80;;;;;;5028178;28;20037;-86
2022/04/23 10:26:20;;;;;;;24.40;15.38;;;17.90;85.80;;;;;;5016725;28;20157;-86
2022/04/23 10:28:47;;;;;;;18.88;16.05;;;18.00;85.40;;;;;;5013970;28;20029;-85
2022/04/23 10:31:15;;;;;;;18.35;15.95;;;18.10;84.60;;;;;;5017892;28;20026;-87
2022/04/23 10:33:46;;;;;;;20.98;15.20;;;18.20;83.20;;;;;;4988346;28;20091;-88
2022/04/23 10:36:12;;;;;;;;;;;18.30;83.40;;;;;;5000525;28;20113;-87
2022/04/23 10:38:40;;;;;;;19.23;14.05;;;18.40;83.20;;;;;;4980391;28;20369;-88
2022/04/23 10:41:07;;;;;;;16.98;14.63;;;18.50;82.70;;;;;;4981566;28;20037;-87
2022/04/23 10:43:33;;;;;;;21.15;15.10;;;18.50;81.70;;;;;;5004292;28;20056;-87
2022/04/23 10:46:00;;;;;;;17.83;14.65;;;18.60;81.30;;;;;;4965350;28;20029;-85
2022/04/23 10:48:30;;;;;;;20.60;15.50;;;18.60;81.20;;;;;;5012884;28;20029;-88
2022/04/23 10:51:19;;;;;;;19.55;15.85;;;18.70;80.90;;;;;;5011225;28;20030;-88
2022/04/23 10:53:46;;;;;;;17.98;15.75;;;18.80;80.80;;;;;;5001467;28;20376;-86
2022/04/23 10:56:15;;;;;;;20.02;16.05;;;18.80;80.00;;;;;;5004358;28;20477;-87
2022/04/23 10:58:41;;;;;;;17.80;15.85;;;18.80;78.80;;;;;;5017301;28;20025;-86
2022/04/23 11:01:29;;;;;;;19.15;15.50;;;18.80;78.00;;;;;;5008728;28;20050;-84
2022/04/23 11:03:55;;;;;;;19.92;16.00;;;18.80;78.50;;;;;;4988244;28;20046;-87
2022/04/23 11:12:27;;;;;;;22.63;16.38;;;18.80;77.00;;;;;;4999853;28;20117;-87
2022/04/23 11:14:56;;;;;;;19.63;17.05;;;18.80;76.50;;;;;;5002656;28;20023;-87
2022/04/23 11:17:45;;;;;;;18.20;15.50;;;18.80;76.50;;;;;;5000638;28;20036;-88
2022/04/23 11:20:12;;;;;;;18.80;16.30;;;18.90;76.80;;;;;;4999905;28;20099;-86
2022/04/23 11:22:37;;;;;;;18.60;15.35;;;18.90;76.10;;;;;;5006887;28;20101;-87
2022/04/23 11:25:09;;;;;;;21.60;16.08;;;19.00;76.50;;;;;;4978908;28;20120;-87
2022/04/23 11:27:38;;;;;;;20.75;15.70;;;19.00;77.10;;;;;;5020287;28;20081;-91
2022/04/23 11:30:05;;;;;;;18.38;15.30;;;19.10;76.60;;;;;;4968440;28;20037;-90
2022/04/23 11:32:36;;;;;;;20.92;16.25;;;19.20;76.30;;;;;;4996880;28;20025;-91
2022/04/23 11:35:05;;;;;;;18.77;15.90;;;19.30;75.00;;;;;;5004434;28;20038;-90
2022/04/23 11:37:35;;;;;;;21.85;16.73;;;19.30;74.20;;;;;;4991676;28;20025;-89
2022/04/23 11:40:08;;;;;;;17.90;16.00;;;19.40;73.50;;;;;;5001878;28;20022;-89
2022/04/23 11:42:43;;;;;;;18.88;15.48;;;19.40;72.80;;;;;;5011441;28;20026;-89
2022/04/23 11:45:11;;;;;;;18.23;13.85;;;19.50;72.50;;;;;;4996442;28;20044;-89
2022/04/23 11:47:37;;;;;;;16.58;13.73;;;19.60;72.50;;;;;;4995489;28;20022;-87
2022/04/23 11:50:18;;;;;;;19.73;16.75;;;19.70;73.20;;;;;;4978824;28;20437;-86
2022/04/23 11:52:45;;;;;;;20.33;16.83;;;19.80;73.60;;;;;;5011237;28;20077;-86
2022/04/23 11:55:25;;;;;;;20.65;16.65;;;19.90;72.10;;;;;;4990898;28;20425;-87
2022/04/23 11:57:55;;;;;;;17.52;15.10;;;20.00;72.00;;;;;;5019325;28;20083;-87
2022/04/23 12:00:22;;;;;;;21.30;15.35;;;20.00;72.20;;;;;;5019371;28;20030;-87
2022/04/23 12:02:48;;;;;;;17.35;15.18;;;20.10;72.10;;;;;;4990861;28;20076;-85
2022/04/23 12:05:28;;;;;;;21.52;16.35;;;20.10;72.30;;;;;;4985728;28;20058;-84
2022/04/23 12:07:54;;;;;;;18.80;15.30;;;20.20;72.20;;;;;;5008504;28;20110;-84
2022/04/23 12:10:28;;;;;;;19.02;15.40;;;20.30;72.30;;;;;;4996474;28;20397;-86
2022/04/23 12:13:06;;;;;;;19.17;16.27;;;20.30;70.90;;;;;;5006149;28;20041;-86
2022/04/23 12:15:32;;;;;;;21.50;15.30;;;20.30;69.30;;;;;;4956927;28;20037;-89
2022/04/23 12:17:58;;;;;;;20.98;16.13;;;20.40;68.80;;;;;;4992992;28;20054;-84
2022/04/23 12:20:26;;;;;;;16.02;13.80;;;20.40;68.20;;;;;;4991098;28;20052;-87
2022/04/23 12:22:58;;;;;;;19.30;15.02;;;20.40;68.50;;;;;;4981594;28;20026;-86
2022/04/23 12:25:28;;;;;;;15.88;13.63;;;20.50;68.10;;;;;;4990617;28;20081;-86
2022/04/23 12:40:43;;;;;;;18.67;14.23;;;20.60;67.70;;;;;;5017097;28;20026;-87
2022/04/23 12:42:09;;;;;;;15.90;13.45;;;20.90;66.30;;;;;;5037900;28;20088;-90
2022/04/23 12:44:45;;;;;;;18.13;13.68;;;20.90;65.40;;;;;;5014788;28;20030;-87
2022/04/23 12:47:13;;;;;;;18.73;13.55;;;21.00;64.70;;;;;;5022116;28;20025;-87
2022/04/23 12:49:50;;;;;;;16.08;13.20;;;21.00;63.80;;;;;;5009593;28;20022;-92
2022/04/23 12:52:45;;;;;;;17.83;14.02;;;21.10;63.90;;;;;;5030834;28;20029;-88
2022/04/23 12:55:16;;;;;;;18.27;13.55;;;21.10;63.40;;;;;;4999585;28;20383;-87
2022/04/23 12:58:00;;;;;;;16.42;13.45;;;21.20;63.30;;;;;;4994926;28;20073;-88
2022/04/23 13:00:26;;;;;;;16.70;12.85;;;21.10;63.40;;;;;;4990001;28;20026;-91
2022/04/23 13:02:59;;;;;;;14.15;12.63;;;21.20;63.40;;;;;;4994810;28;20373;-88
2022/04/23 13:05:33;;;;;;;14.32;12.75;;;21.20;63.80;;;;;;5001024;28;20059;-91